Time;durP1;ratioP1;P1;durP2;ratioP2;P2;SDS_P1;SDS_P2;PMS_P1;PMS_P2;Temp;Humidity;BMP_temperature;BMP_pressure;BME280_temperature;BME280_humidity;BME280_pressure;Samples;Min_cycle;Max_cycle;Signal;HPM_P1;HPM_P2
2023/01/12 00:02:12;;;;;;;9.03;1.97;;;8.70;99.90;;;;;;5089701;28;20036;-72
2023/01/12 00:04:37;;;;;;;8.83;1.20;;;8.50;99.90;;;;;;5087926;28;20111;-72
2023/01/12 00:07:11;;;;;;;5.10;1.20;;;8.50;99.90;;;;;;5069762;28;20111;-71
2023/01/12 00:09:37;;;;;;;5.88;1.98;;;;;;;;;;5074950;28;20032;-72
2023/01/12 00:12:05;;;;;;;6.23;1.30;;;8.60;99.90;;;;;;5094054;28;20099;-72
2023/01/12 00:14:35;;;;;;;5.33;1.60;;;8.60;99.90;;;;;;5092939;28;20024;-69
2023/01/12 00:17:01;;;;;;;7.87;2.13;;;8.70;99.90;;;;;;5093169;28;20030;-69
2023/01/12 00:19:27;;;;;;;5.57;1.57;;;8.60;99.90;;;;;;5081516;28;20024;-69
2023/01/12 00:21:55;;;;;;;8.17;1.63;;;8.70;99.90;;;;;;5093462;28;20032;-69
2023/01/12 00:24:21;;;;;;;7.27;1.77;;;8.70;99.90;;;;;;5092527;28;20024;-69
2023/01/12 00:26:48;;;;;;;10.77;2.17;;;8.80;99.90;;;;;;5093155;28;20032;-69
2023/01/12 00:29:15;;;;;;;9.30;3.10;;;8.60;99.90;;;;;;5092084;28;20061;-69
2023/01/12 00:31:41;;;;;;;12.40;3.43;;;;;;;;;;5093277;28;20016;-69
2023/01/12 00:34:06;;;;;;;8.17;2.40;;;8.50;99.90;;;;;;5092700;28;20047;-69
2023/01/12 00:36:32;;;;;;;10.80;3.27;;;;;;;;;;5092394;28;20024;-69
2023/01/12 00:38:58;;;;;;;14.90;3.63;;;8.90;99.90;;;;;;5092292;28;20024;-69
2023/01/12 00:46:52;;;;;;;16.47;4.20;;;8.70;99.90;;;;;;5083928;28;20162;-72
2023/01/12 00:49:18;;;;;;;8.40;2.93;;;8.70;99.90;;;;;;5086415;28;20099;-72
2023/01/12 00:51:43;;;;;;;14.90;4.00;;;;;;;;;;5084915;28;20035;-72
2023/01/12 00:54:09;;;;;;;11.27;3.03;;;9.20;99.90;;;;;;5091389;28;20531;-72
2023/01/12 00:56:35;;;;;;;18.37;4.47;;;8.80;99.90;;;;;;5086067;28;20393;-72
2023/01/12 00:59:01;;;;;;;13.93;4.23;;;8.70;99.90;;;;;;5086875;28;20024;-70
2023/01/12 01:01:27;;;;;;;11.40;3.60;;;;;;;;;;5086252;28;20055;-69
2023/01/12 01:03:53;;;;;;;13.33;4.37;;;8.80;99.90;;;;;;5086735;28;20516;-70
2023/01/12 01:06:19;;;;;;;15.73;4.70;;;;;;;;;;5084114;28;20481;-70
2023/01/12 01:08:46;;;;;;;14.33;4.30;;;8.70;99.90;;;;;;5087242;28;20104;-70
2023/01/12 01:11:13;;;;;;;14.30;4.57;;;8.70;99.90;;;;;;5092145;28;20036;-70
2023/01/12 01:13:40;;;;;;;18.97;4.60;;;8.80;99.90;;;;;;5092918;28;20038;-70
2023/01/12 01:16:07;;;;;;;19.87;5.73;;;8.80;99.90;;;;;;5088995;28;20047;-70
2023/01/12 01:18:33;;;;;;;21.17;4.93;;;8.70;99.90;;;;;;5082306;28;20020;-70
2023/01/12 01:20:59;;;;;;;17.00;4.70;;;8.70;99.90;;;;;;5074329;28;20021;-70
2023/01/12 01:23:26;;;;;;;25.43;6.23;;;8.70;99.90;;;;;;5071669;28;20024;-70
2023/01/12 01:25:52;;;;;;;21.00;6.03;;;;;;;;;;5070480;28;20052;-70
2023/01/12 01:28:18;;;;;;;24.90;7.00;;;8.80;99.90;;;;;;5070524;28;20028;-70
2023/01/12 01:30:45;;;;;;;15.33;5.17;;;8.80;99.90;;;;;;5070378;28;20017;-70
2023/01/12 01:33:11;;;;;;;17.40;5.13;;;;;;;;;;5069115;28;20480;-70
2023/01/12 01:35:37;;;;;;;19.60;5.57;;;;;;;;;;5070398;28;20092;-70
2023/01/12 01:38:04;;;;;;;15.90;6.53;;;8.90;99.90;;;;;;5071023;28;20681;-70
2023/01/12 01:40:30;;;;;;;17.43;5.30;;;8.90;99.90;;;;;;5071906;28;20023;-70
2023/01/12 01:42:56;;;;;;;22.10;5.63;;;8.80;99.90;;;;;;5072874;28;20044;-70
2023/01/12 01:45:21;;;;;;;15.17;4.53;;;9.00;99.90;;;;;;5074046;28;20031;-70
2023/01/12 01:47:59;;;;;;;20.47;5.17;;;8.90;99.90;;;;;;5072953;28;20504;-70
2023/01/12 01:50:34;;;;;;;17.37;4.90;;;8.90;99.90;;;;;;5073735;28;20023;-70
2023/01/12 01:53:12;;;;;;;15.53;5.17;;;8.90;99.90;;;;;;5085731;28;20044;-70
2023/01/12 01:55:51;;;;;;;16.10;4.60;;;9.00;99.90;;;;;;5089011;28;20362;-70
2023/01/12 01:58:23;;;;;;;16.53;4.43;;;9.10;99.90;;;;;;5073873;28;20542;-70
2023/01/12 02:00:48;;;;;;;15.10;3.70;;;8.90;99.90;;;;;;5073252;28;20385;-70
2023/01/12 02:03:16;;;;;;;17.40;4.37;;;8.90;99.90;;;;;;5072026;28;20024;-70
2023/01/12 02:05:47;;;;;;;17.97;3.77;;;9.00;99.90;;;;;;5072912;28;20024;-70
2023/01/12 02:08:29;;;;;;;12.63;3.87;;;8.90;99.90;;;;;;5073748;28;20044;-70
2023/01/12 02:10:56;;;;;;;12.93;3.17;;;8.90;99.90;;;;;;5085651;28;20063;-70
2023/01/12 02:16:26;;;;;;;15.43;4.40;;;9.00;99.90;;;;;;5032870;28;20040;-70
2023/01/12 02:19:03;;;;;;;14.83;3.67;;;8.90;99.90;;;;;;5024332;28;20034;-70
2023/01/12 02:21:59;;;;;;;11.37;3.03;;;9.00;99.90;;;;;;4999859;28;20041;-70
2023/01/12 02:24:55;;;;;;;13.70;3.10;;;8.90;99.90;;;;;;5024514;28;20061;-70
2023/01/12 02:27:37;;;;;;;11.80;3.30;;;8.80;99.90;;;;;;5009667;28;20695;-70
2023/01/12 02:30:46;;;;;;;9.30;3.23;;;9.40;99.90;;;;;;5009473;28;20030;-70
2023/01/12 02:33:23;;;;;;;13.50;3.97;;;8.80;99.90;;;;;;5007825;28;20041;-70
2023/01/12 02:36:04;;;;;;;13.67;3.60;;;9.10;99.90;;;;;;5011002;28;20028;-70
2023/01/12 02:39:21;;;;;;;12.20;2.93;;;8.80;99.90;;;;;;5028396;28;20045;-71
2023/01/12 02:45:10;;;;;;;11.00;2.60;;;8.90;99.90;;;;;;4970444;28;20074;-71
2023/01/12 02:47:56;;;;;;;8.10;3.30;;;8.80;99.90;;;;;;4960698;28;20027;-71
2023/01/12 02:50:25;;;;;;;15.33;4.53;;;9.20;99.90;;;;;;4968113;28;20027;-71
2023/01/12 02:52:58;;;;;;;12.03;3.20;;;9.20;99.90;;;;;;5012069;28;20033;-71
2023/01/12 02:55:25;;;;;;;9.40;3.17;;;8.80;99.90;;;;;;5048168;28;20079;-72
2023/01/12 02:57:53;;;;;;;10.30;2.50;;;8.90;99.90;;;;;;5048439;28;20146;-71
2023/01/12 03:00:19;;;;;;;10.20;2.40;;;;;;;;;;5031475;28;20020;-72
2023/01/12 03:02:45;;;;;;;15.27;2.40;;;8.90;99.90;;;;;;5047935;28;20056;-71
2023/01/12 03:05:10;;;;;;;10.30;2.10;;;8.90;99.90;;;;;;5047671;28;20590;-71
2023/01/12 03:07:54;;;;;;;6.03;2.77;;;8.90;99.90;;;;;;5048279;28;20040;-71
2023/01/12 03:10:40;;;;;;;12.35;2.60;;;8.80;99.90;;;;;;5037202;28;20036;-71
2023/01/12 03:13:11;;;;;;;10.00;2.43;;;8.80;99.90;;;;;;5047989;28;20025;-71
2023/01/12 03:15:45;;;;;;;12.60;3.10;;;9.00;99.90;;;;;;5039555;28;20152;-71
2023/01/12 03:18:16;;;;;;;9.57;2.63;;;8.90;99.90;;;;;;5082016;28;20037;-71
2023/01/12 03:20:54;;;;;;;18.13;2.93;;;9.00;99.90;;;;;;5071158;28;20028;-71
2023/01/12 03:23:30;;;;;;;18.13;3.63;;;8.70;99.90;;;;;;5070699;28;20028;-71
2023/01/12 03:25:57;;;;;;;14.30;3.27;;;9.00;99.90;;;;;;5071192;28;20470;-71
2023/01/12 03:28:31;;;;;;;13.00;3.20;;;9.00;99.90;;;;;;5070965;28;20095;-71
2023/01/12 03:31:07;;;;;;;13.77;3.42;;;8.90;99.90;;;;;;5071066;28;20358;-72
2023/01/12 03:33:34;;;;;;;15.33;3.10;;;8.90;99.90;;;;;;5071120;28;20025;-72
2023/01/12 03:36:18;;;;;;;15.97;3.30;;;8.90;99.90;;;;;;5071269;28;20186;-72
2023/01/12 03:38:55;;;;;;;20.90;4.65;;;8.90;99.90;;;;;;5071318;28;20035;-71
2023/01/12 03:41:45;;;;;;;9.83;2.60;;;8.80;99.90;;;;;;5070315;28;20220;-71
2023/01/12 03:44:35;;;;;;;15.27;2.67;;;8.90;99.90;;;;;;5068600;28;20055;-71
2023/01/12 03:47:07;;;;;;;13.33;2.70;;;8.90;99.90;;;;;;5048098;28;20040;-72
2023/01/12 03:49:42;;;;;;;9.57;2.00;;;8.80;99.90;;;;;;5070466;28;20025;-71
2023/01/12 03:52:10;;;;;;;8.40;2.37;;;8.40;99.90;;;;;;5070520;28;20029;-71
2023/01/12 03:54:38;;;;;;;13.87;2.40;;;8.80;99.90;;;;;;5070554;28;20496;-71
2023/01/12 03:57:06;;;;;;;14.37;2.13;;;8.80;99.90;;;;;;5083465;28;20035;-71
2023/01/12 03:59:32;;;;;;;10.77;2.63;;;;;;;;;;5069489;28;20021;-71
2023/01/12 04:01:57;;;;;;;10.10;2.10;;;9.00;99.90;;;;;;5070132;28;20023;-71
2023/01/12 04:04:23;;;;;;;15.87;2.53;;;9.00;99.90;;;;;;5070385;28;20035;-71
2023/01/12 04:06:48;;;;;;;12.40;2.30;;;9.30;99.90;;;;;;5070336;28;20055;-71
2023/01/12 04:09:14;;;;;;;13.27;2.50;;;8.80;99.90;;;;;;5070364;28;20122;-71
2023/01/12 04:14:24;;;;;;;10.93;1.80;;;8.70;99.90;;;;;;5088336;28;20024;-71
2023/01/12 04:16:51;;;;;;;8.57;2.17;;;8.80;99.90;;;;;;5090123;28;20028;-71
2023/01/12 04:19:17;;;;;;;11.07;2.03;;;;;;;;;;5086615;28;20089;-71
2023/01/12 04:24:27;;;;;;;10.55;2.05;;;;;;;;;;5072999;28;20381;-73
2023/01/12 04:26:53;;;;;;;9.63;1.90;;;;;;;;;;5075247;28;20025;-73
2023/01/12 04:29:19;;;;;;;9.67;1.93;;;8.80;99.90;;;;;;5075113;28;20458;-73
2023/01/12 04:31:44;;;;;;;12.03;2.13;;;8.90;99.90;;;;;;5076247;28;20066;-70
2023/01/12 04:34:10;;;;;;;5.40;1.23;;;8.80;99.90;;;;;;5075464;28;20363;-73
2023/01/12 04:36:36;;;;;;;7.77;2.20;;;8.80;99.90;;;;;;5075920;28;20032;-72
2023/01/12 04:39:01;;;;;;;12.00;1.90;;;8.90;99.90;;;;;;5077134;28;20020;-72
2023/01/12 04:41:27;;;;;;;8.50;1.97;;;8.90;99.90;;;;;;5082273;28;20090;-72
2023/01/12 04:43:53;;;;;;;5.17;1.47;;;;;;;;;;5083583;28;20077;-73
2023/01/12 04:46:18;;;;;;;9.60;1.77;;;8.50;99.90;;;;;;5084893;28;20142;-73
2023/01/12 04:48:44;;;;;;;9.20;1.77;;;8.90;99.90;;;;;;5075602;28;20469;-72
2023/01/12 04:51:11;;;;;;;9.00;1.70;;;9.10;99.90;;;;;;5075317;28;20021;-72
2023/01/12 04:53:36;;;;;;;6.20;1.17;;;8.80;99.90;;;;;;5074953;28;20028;-73
2023/01/12 04:56:03;;;;;;;5.87;1.47;;;8.90;99.90;;;;;;5081403;28;20028;-70
2023/01/12 04:58:29;;;;;;;8.90;1.70;;;;;;;;;;5081179;28;20025;-70
2023/01/12 05:00:55;;;;;;;6.77;1.50;;;8.90;99.90;;;;;;5084491;28;20485;-70
2023/01/12 05:03:20;;;;;;;7.40;1.43;;;9.00;99.90;;;;;;5077285;28;20545;-70
2023/01/12 05:05:46;;;;;;;14.57;3.00;;;8.80;99.90;;;;;;5077785;28;20052;-70
2023/01/12 05:10:58;;;;;;;5.77;1.50;;;8.80;99.90;;;;;;5088089;28;20042;-71
2023/01/12 05:13:26;;;;;;;9.63;1.67;;;9.00;99.90;;;;;;5085146;28;20028;-70
2023/01/12 05:15:52;;;;;;;6.73;1.20;;;;;;;;;;5072933;28;20028;-70
2023/01/12 05:18:18;;;;;;;9.53;1.33;;;;;;;;;;5089833;28;20085;-71
2023/01/12 05:20:44;;;;;;;4.97;1.20;;;8.90;99.90;;;;;;5087058;28;20068;-71
2023/01/12 05:23:09;;;;;;;5.03;1.60;;;8.90;99.90;;;;;;5074683;28;20028;-70
2023/01/12 05:25:35;;;;;;;8.30;1.40;;;8.80;99.90;;;;;;5091549;28;20024;-71
2023/01/12 05:28:01;;;;;;;6.67;1.50;;;;;;;;;;5090134;28;20040;-71
2023/01/12 05:30:27;;;;;;;4.77;1.20;;;9.00;99.90;;;;;;5099845;28;20077;-71
2023/01/12 05:32:53;;;;;;;2.67;1.10;;;8.80;99.90;;;;;;5086903;28;20020;-71
2023/01/12 05:35:19;;;;;;;8.60;1.53;;;8.90;99.90;;;;;;5085890;28;20024;-70
2023/01/12 05:37:45;;;;;;;7.57;1.37;;;9.00;99.90;;;;;;5082044;28;20025;-71
2023/01/12 05:40:11;;;;;;;7.10;1.00;;;8.90;99.90;;;;;;5086228;28;20032;-71
2023/01/12 05:45:21;;;;;;;8.23;1.33;;;9.00;99.90;;;;;;5083782;28;20629;-71
2023/01/12 05:47:56;;;;;;;6.17;0.93;;;8.90;99.90;;;;;;5084896;28;20468;-71
2023/01/12 05:50:21;;;;;;;6.50;1.07;;;9.10;99.90;;;;;;5081594;28;20409;-71
2023/01/12 05:52:50;;;;;;;6.63;1.30;;;8.80;99.90;;;;;;5085337;28;20024;-71
2023/01/12 05:55:16;;;;;;;5.40;1.00;;;;;;;;;;5080320;28;20108;-71
2023/01/12 05:57:42;;;;;;;7.80;1.03;;;9.00;99.90;;;;;;5086646;28;20085;-71
2023/01/12 06:00:08;;;;;;;5.77;1.30;;;;;;;;;;5086183;28;20035;-71
2023/01/12 06:02:34;;;;;;;7.23;1.07;;;;;;;;;;5083435;28;20366;-71
2023/01/12 06:05:00;;;;;;;17.13;2.93;;;9.00;99.90;;;;;;5073379;28;20033;-71
2023/01/12 06:07:25;;;;;;;3.93;1.03;;;;;;;;;;5083337;28;20043;-71
2023/01/12 06:09:51;;;;;;;5.07;1.10;;;8.90;99.90;;;;;;5073970;28;20039;-71
2023/01/12 06:15:01;;;;;;;9.17;2.70;;;9.10;99.90;;;;;;5077716;28;20035;-71
2023/01/12 06:17:27;;;;;;;9.67;1.50;;;;;;;;;;5091058;28;20548;-70
2023/01/12 06:19:53;;;;;;;6.17;1.00;;;;;;;;;;5090808;28;20060;-71
2023/01/12 06:22:19;;;;;;;5.23;0.90;;;;;;;;;;5081725;28;20033;-70
2023/01/12 06:24:47;;;;;;;5.40;0.87;;;9.20;99.90;;;;;;5090555;28;20043;-71
2023/01/12 06:27:15;;;;;;;5.60;1.00;;;9.20;99.90;;;;;;5089316;28;20487;-70
2023/01/12 06:29:40;;;;;;;7.50;0.90;;;;;;;;;;5089280;28;20036;-70
2023/01/12 06:32:06;;;;;;;7.23;1.77;;;9.30;99.90;;;;;;5090341;28;20036;-71
2023/01/12 06:34:34;;;;;;;8.17;1.70;;;9.20;99.90;;;;;;5085636;28;20086;-71
2023/01/12 06:37:01;;;;;;;5.03;1.37;;;;;;;;;;5085217;28;20035;-71
2023/01/12 06:39:27;;;;;;;5.63;0.90;;;;;;;;;;5089828;28;20027;-71
2023/01/12 06:44:37;;;;;;;1.47;0.87;;;9.20;99.90;;;;;;5089797;28;20569;-71
2023/01/12 06:47:04;;;;;;;3.53;0.83;;;9.30;99.90;;;;;;5088176;28;20024;-70
2023/01/12 06:49:29;;;;;;;3.20;0.93;;;9.20;99.90;;;;;;5089690;28;20016;-71
2023/01/12 06:51:55;;;;;;;4.47;0.63;;;9.30;99.90;;;;;;5088253;28;20012;-71
2023/01/12 06:54:21;;;;;;;5.20;1.13;;;;;;;;;;5086888;28;20024;-71
2023/01/12 06:56:47;;;;;;;3.83;0.90;;;9.20;99.90;;;;;;5088308;28;20027;-71
2023/01/12 06:59:13;;;;;;;8.80;1.00;;;;;;;;;;5074264;28;20035;-70
2023/01/12 07:01:39;;;;;;;6.13;1.27;;;9.60;99.90;;;;;;5082701;28;20020;-71
2023/01/12 07:04:05;;;;;;;1.50;0.90;;;;;;;;;;5087487;28;20024;-71
2023/01/12 07:06:31;;;;;;;5.00;1.07;;;9.30;99.90;;;;;;5088976;28;20303;-71
2023/01/12 07:08:57;;;;;;;4.70;1.13;;;;;;;;;;5089304;28;20465;-71
2023/01/12 07:11:23;;;;;;;5.00;1.23;;;9.30;99.90;;;;;;5070549;28;20469;-71
2023/01/12 07:13:48;;;;;;;5.60;1.23;;;9.40;99.90;;;;;;5081540;28;20066;-71
2023/01/12 07:16:14;;;;;;;6.43;1.53;;;8.90;99.90;;;;;;5085868;28;20024;-71
2023/01/12 07:18:40;;;;;;;6.20;1.20;;;;;;;;;;5080445;28;20040;-71
2023/01/12 07:21:07;;;;;;;4.93;1.50;;;9.50;99.90;;;;;;5073609;28;20097;-71
2023/01/12 07:23:32;;;;;;;4.97;1.63;;;9.40;99.90;;;;;;5083474;28;20019;-71
2023/01/12 07:25:58;;;;;;;3.07;1.40;;;9.50;99.90;;;;;;5073315;28;20024;-70
2023/01/12 07:28:23;;;;;;;2.77;1.30;;;9.50;99.90;;;;;;5081326;28;20102;-70
2023/01/12 07:30:49;;;;;;;5.13;1.67;;;;;;;;;;5077065;28;20105;-71
2023/01/12 07:33:15;;;;;;;4.80;1.47;;;9.60;99.90;;;;;;5080728;28;20063;-71
2023/01/12 07:35:41;;;;;;;2.83;1.27;;;9.30;99.90;;;;;;5086999;28;20096;-71
2023/01/12 07:38:08;;;;;;;3.40;1.43;;;9.50;99.90;;;;;;5081804;28;20036;-71
2023/01/12 07:40:34;;;;;;;4.80;1.77;;;;;;;;;;5089195;28;20027;-71
2023/01/12 07:43:02;;;;;;;5.23;2.00;;;9.50;99.90;;;;;;5089802;28;20056;-71
2023/01/12 07:45:28;;;;;;;3.43;1.70;;;9.50;99.90;;;;;;5082218;28;20035;-71
2023/01/12 07:47:54;;;;;;;4.33;1.60;;;9.50;99.90;;;;;;5082776;28;20036;-71
2023/01/12 07:50:21;;;;;;;2.73;1.47;;;9.50;99.90;;;;;;5081895;28;20031;-71
2023/01/12 07:52:47;;;;;;;4.23;1.63;;;9.70;99.90;;;;;;5087110;28;20075;-71
2023/01/12 07:55:15;;;;;;;5.57;1.03;;;;;;;;;;5084914;28;20060;-72
2023/01/12 07:57:42;;;;;;;3.30;1.27;;;9.60;99.90;;;;;;5088792;28;20035;-71
2023/01/12 08:00:08;;;;;;;5.97;1.60;;;;;;;;;;5082907;28;20036;-71
2023/01/12 08:02:34;;;;;;;7.17;2.27;;;;;;;;;;5085468;28;20028;-71
2023/01/12 08:04:59;;;;;;;3.77;1.80;;;9.60;99.90;;;;;;5088691;28;20108;-71
2023/01/12 08:07:25;;;;;;;3.17;1.23;;;9.60;99.90;;;;;;5076251;28;20028;-71
2023/01/12 08:09:51;;;;;;;4.67;1.93;;;10.10;99.90;;;;;;5076270;28;20024;-70
2023/01/12 08:12:16;;;;;;;4.00;1.63;;;9.70;99.90;;;;;;5076544;28;20055;-70
2023/01/12 08:14:42;;;;;;;6.67;2.33;;;;;;;;;;5080188;28;20033;-71
2023/01/12 08:17:20;;;;;;;4.40;2.17;;;9.70;99.90;;;;;;5088661;28;20027;-71
2023/01/12 08:20:17;;;;;;;3.43;1.80;;;9.70;99.90;;;;;;5085207;28;20434;-70
2023/01/12 08:22:46;;;;;;;2.43;1.43;;;9.70;99.90;;;;;;5079850;28;20486;-71
2023/01/12 08:25:30;;;;;;;3.93;2.07;;;9.80;99.90;;;;;;5074425;28;20032;-70
2023/01/12 08:27:59;;;;;;;2.70;2.00;;;9.70;99.90;;;;;;5083453;28;20115;-71
2023/01/12 08:30:27;;;;;;;2.90;1.97;;;9.80;99.90;;;;;;5083218;28;20546;-71
2023/01/12 08:32:55;;;;;;;3.33;1.90;;;9.80;99.90;;;;;;5096133;28;20023;-71
2023/01/12 08:35:23;;;;;;;7.40;2.90;;;9.70;99.90;;;;;;5096934;28;20527;-71
2023/01/12 08:37:49;;;;;;;2.97;2.10;;;;;;;;;;5105840;27;20122;-71
2023/01/12 08:40:15;;;;;;;4.73;2.90;;;;;;;;;;5090815;28;20107;-71
2023/01/12 08:42:42;;;;;;;3.17;2.30;;;9.90;99.90;;;;;;5093131;28;20094;-71
2023/01/12 08:45:08;;;;;;;3.30;2.30;;;;;;;;;;5081632;28;20032;-71
2023/01/12 08:47:36;;;;;;;5.07;2.50;;;9.80;99.90;;;;;;5083093;28;20021;-71
2023/01/12 08:50:02;;;;;;;4.60;2.30;;;9.80;99.90;;;;;;5085116;28;20115;-71
2023/01/12 08:52:30;;;;;;;5.30;2.43;;;9.80;99.90;;;;;;5086970;28;20020;-71
2023/01/12 08:54:56;;;;;;;4.40;2.70;;;9.90;99.90;;;;;;5085629;28;20105;-71
2023/01/12 08:57:21;;;;;;;5.47;2.50;;;9.90;99.90;;;;;;5086054;28;20103;-72
2023/01/12 08:59:47;;;;;;;6.53;3.03;;;9.70;99.90;;;;;;5086144;28;20481;-71
2023/01/12 09:02:14;;;;;;;4.83;2.47;;;9.80;99.90;;;;;;5098814;28;20054;-71
2023/01/12 09:04:40;;;;;;;6.27;3.40;;;9.90;99.90;;;;;;5101714;28;20024;-72
2023/01/12 09:07:10;;;;;;;4.77;2.83;;;9.90;99.90;;;;;;5104590;28;20028;-72
2023/01/12 09:09:35;;;;;;;4.27;3.07;;;10.00;99.90;;;;;;5092207;28;20081;-72
2023/01/12 09:12:01;;;;;;;4.37;3.43;;;10.00;99.90;;;;;;5074019;28;20470;-71
2023/01/12 09:14:28;;;;;;;4.20;3.43;;;;;;;;;;5075136;28;20020;-72
2023/01/12 09:16:55;;;;;;;4.13;3.73;;;10.10;99.90;;;;;;5081894;28;20020;-73
2023/01/12 09:19:21;;;;;;;6.30;3.47;;;10.00;99.90;;;;;;5083995;28;20022;-71
2023/01/12 09:21:47;;;;;;;6.50;4.43;;;;;;;;;;5084335;28;20040;-75
2023/01/12 09:24:13;;;;;;;3.97;3.57;;;;;;;;;;5080884;28;20021;-72
2023/01/12 09:26:41;;;;;;;4.73;3.67;;;10.10;99.90;;;;;;5081032;28;20456;-72
2023/01/12 09:29:09;;;;;;;3.97;3.57;;;10.00;99.90;;;;;;5091693;28;20475;-72
2023/01/12 09:31:37;;;;;;;5.93;3.80;;;10.20;99.90;;;;;;5084224;28;20777;-72
2023/01/12 09:34:03;;;;;;;5.43;4.23;;;10.00;99.90;;;;;;5085217;28;20078;-72
2023/01/12 09:36:31;;;;;;;4.90;3.47;;;10.10;99.90;;;;;;5080669;28;20415;-72
2023/01/12 09:38:57;;;;;;;5.17;3.43;;;;;;;;;;5078377;28;20025;-72
2023/01/12 09:47:43;;;;;;;5.83;4.30;;;10.20;99.90;;;;;;5084239;28;20036;-71
2023/01/12 09:50:38;;;;;;;9.87;4.23;;;10.20;99.90;;;;;;5075343;28;20020;-73
2023/01/12 09:53:12;;;;;;;;;;;10.30;99.90;;;;;;5078321;28;20043;-72
2023/01/12 09:56:00;;;;;;;4.13;3.83;;;10.20;99.90;;;;;;5075445;28;19912;-71
2023/01/12 09:58:29;;;;;;;7.23;3.70;;;10.20;99.90;;;;;;5075532;28;20024;-71
2023/01/12 10:00:57;;;;;;;6.70;4.60;;;10.20;99.90;;;;;;5092800;28;20376;-72
2023/01/12 10:03:37;;;;;;;5.50;3.17;;;10.30;99.90;;;;;;5104382;28;20102;-72
2023/01/12 10:06:04;;;;;;;6.53;4.03;;;10.20;99.90;;;;;;5098465;28;20012;-72
2023/01/12 10:08:50;;;;;;;4.00;3.40;;;10.20;99.90;;;;;;5102769;28;20012;-72
2023/01/12 10:11:39;;;;;;;5.97;3.03;;;10.30;99.90;;;;;;5103911;28;20050;-73
2023/01/12 10:14:34;;;;;;;3.53;3.20;;;10.30;99.90;;;;;;5098235;28;20017;-72
2023/01/12 10:17:14;;;;;;;4.53;2.50;;;10.40;99.90;;;;;;5080367;28;20036;-72
2023/01/12 10:19:46;;;;;;;5.77;2.90;;;10.30;99.90;;;;;;5076488;28;20096;-72
2023/01/12 10:22:35;;;;;;;3.97;2.40;;;10.30;99.90;;;;;;5084506;28;20123;-71
2023/01/12 10:25:22;;;;;;;3.60;2.13;;;10.50;99.90;;;;;;5075666;28;20036;-72
2023/01/12 10:27:50;;;;;;;4.43;2.17;;;10.40;99.90;;;;;;5061664;28;20491;-72
2023/01/12 10:30:39;;;;;;;1.80;1.70;;;10.40;99.90;;;;;;5078420;28;20487;-72
2023/01/12 10:33:14;;;;;;;3.83;2.00;;;10.60;99.90;;;;;;5081819;28;20082;-72
2023/01/12 10:35:49;;;;;;;2.63;1.73;;;10.40;99.90;;;;;;5091670;28;20061;-72
2023/01/12 10:38:33;;;;;;;2.83;1.90;;;10.40;99.90;;;;;;5091770;28;20032;-72
2023/01/12 10:41:04;;;;;;;1.58;1.35;;;10.50;99.90;;;;;;5084270;28;20425;-72
2023/01/12 10:43:35;;;;;;;4.27;1.60;;;10.40;99.90;;;;;;5088158;28;20024;-72
2023/01/12 10:46:14;;;;;;;3.03;1.77;;;10.30;99.90;;;;;;5083514;28;20025;-72
2023/01/12 10:48:42;;;;;;;1.80;1.43;;;10.50;99.90;;;;;;5079295;28;20024;-72
2023/01/12 10:51:28;;;;;;;4.20;1.60;;;10.50;99.90;;;;;;5082113;28;20127;-74
2023/01/12 10:54:01;;;;;;;2.17;1.30;;;10.40;99.90;;;;;;5068764;28;20043;-73
2023/01/12 10:56:40;;;;;;;2.08;1.52;;;10.60;99.90;;;;;;5082115;28;20023;-73
2023/01/12 10:59:16;;;;;;;2.28;1.60;;;10.50;99.90;;;;;;5080838;28;20015;-73
2023/01/12 11:01:48;;;;;;;1.83;1.33;;;10.50;99.90;;;;;;5077953;28;20020;-73
2023/01/12 11:04:27;;;;;;;3.27;1.80;;;10.50;99.90;;;;;;5079864;28;20016;-72
2023/01/12 11:07:15;;;;;;;2.27;1.63;;;10.60;99.90;;;;;;5087254;28;20027;-72
2023/01/12 11:09:42;;;;;;;2.00;1.70;;;10.60;99.90;;;;;;5082800;28;20028;-72
2023/01/12 11:12:26;;;;;;;3.23;1.80;;;10.70;99.90;;;;;;5080575;28;20048;-72
2023/01/12 11:15:13;;;;;;;1.83;1.70;;;10.60;99.90;;;;;;5087597;28;20028;-72
2023/01/12 11:17:53;;;;;;;2.20;1.90;;;10.60;99.90;;;;;;5089374;28;20024;-72
2023/01/12 11:20:52;;;;;;;3.17;2.27;;;10.60;99.90;;;;;;5078982;28;20036;-71
2023/01/12 11:23:38;;;;;;;1.90;1.52;;;10.60;99.90;;;;;;5081004;28;20476;-71
2023/01/12 11:26:17;;;;;;;2.55;2.08;;;10.80;99.90;;;;;;5071276;28;20536;-72
2023/01/12 11:28:47;;;;;;;3.40;2.00;;;10.70;99.90;;;;;;5080843;28;20031;-72
2023/01/12 11:31:13;;;;;;;2.33;2.07;;;10.60;99.90;;;;;;5082974;28;20023;-71
2023/01/12 11:33:42;;;;;;;2.73;2.37;;;10.60;99.90;;;;;;5085654;28;20435;-71
2023/01/12 11:36:10;;;;;;;3.97;2.57;;;10.80;99.90;;;;;;5072028;28;20024;-71
2023/01/12 11:38:42;;;;;;;2.90;2.53;;;10.80;99.90;;;;;;5075977;28;20111;-71
2023/01/12 11:41:33;;;;;;;3.33;2.58;;;10.80;99.90;;;;;;5071462;28;20052;-71
2023/01/12 11:44:14;;;;;;;4.35;2.92;;;10.90;99.90;;;;;;5071716;28;20028;-71
2023/01/12 11:46:51;;;;;;;3.72;2.88;;;10.70;99.90;;;;;;5081481;28;20207;-71
2023/01/12 11:49:33;;;;;;;2.87;2.63;;;10.60;99.90;;;;;;5081483;28;20024;-71
2023/01/12 11:52:01;;;;;;;3.40;2.77;;;10.60;99.90;;;;;;5081888;28;20025;-71
2023/01/12 11:54:29;;;;;;;3.60;2.70;;;10.70;99.90;;;;;;5084705;28;20020;-71
2023/01/12 11:57:01;;;;;;;5.30;3.37;;;10.70;99.90;;;;;;5081266;28;20037;-71
2023/01/12 11:59:49;;;;;;;4.13;2.77;;;10.60;99.90;;;;;;5084087;28;20024;-71
2023/01/12 12:02:39;;;;;;;5.53;3.43;;;10.60;99.90;;;;;;5082274;28;20054;-71
2023/01/12 12:06:02;;;;;;;3.80;3.40;;;10.70;99.90;;;;;;5089723;28;20481;-71
2023/01/12 12:09:13;;;;;;;5.40;3.00;;;10.70;99.90;;;;;;5006721;28;20042;-72
2023/01/12 12:11:56;;;;;;;4.00;3.60;;;10.80;99.90;;;;;;5003771;28;20022;-71
2023/01/12 12:14:30;;;;;;;4.43;3.27;;;10.70;99.90;;;;;;5026412;28;20107;-72
2023/01/12 12:17:32;;;;;;;4.13;3.73;;;10.70;99.90;;;;;;5006721;28;20034;-72
2023/01/12 12:19:58;;;;;;;3.50;3.20;;;10.80;99.90;;;;;;4988914;28;20093;-72
2023/01/12 12:22:41;;;;;;;3.15;2.85;;;10.80;99.90;;;;;;5003877;28;20037;-71
2023/01/12 12:25:34;;;;;;;3.50;2.28;;;10.80;99.90;;;;;;5011877;28;20056;-71
2023/01/12 12:28:32;;;;;;;2.30;2.10;;;10.40;99.90;;;;;;5010864;28;20033;-73
2023/01/12 12:31:28;;;;;;;3.80;2.20;;;10.80;99.90;;;;;;5014906;28;20048;-72
2023/01/12 12:34:06;;;;;;;1.73;1.50;;;10.60;99.90;;;;;;5011083;28;20026;-72
2023/01/12 12:36:32;;;;;;;2.93;1.90;;;10.70;99.90;;;;;;5011974;28;20030;-72
2023/01/12 12:39:34;;;;;;;3.77;1.93;;;10.90;99.90;;;;;;5007894;28;20450;-72
2023/01/12 12:45:18;;;;;;;2.22;1.70;;;10.80;99.90;;;;;;5079949;28;20043;-73
2023/01/12 12:48:02;;;;;;;2.03;1.60;;;10.90;99.90;;;;;;5083460;28;20027;-71
2023/01/12 12:50:54;;;;;;;2.30;1.80;;;10.80;99.90;;;;;;5078854;28;20397;-72
2023/01/12 12:53:35;;;;;;;2.83;2.40;;;10.90;99.90;;;;;;5067485;28;20744;-71
2023/01/12 12:56:07;;;;;;;2.40;1.93;;;10.70;99.90;;;;;;5091372;28;20021;-72
2023/01/12 12:58:49;;;;;;;3.53;2.07;;;11.00;99.90;;;;;;5089984;28;20016;-72
2023/01/12 13:01:23;;;;;;;2.13;1.85;;;10.90;99.90;;;;;;5089746;28;20048;-71
2023/01/12 13:03:50;;;;;;;2.00;1.50;;;10.90;99.90;;;;;;5078652;28;20016;-71
2023/01/12 13:06:21;;;;;;;2.07;1.27;;;10.80;99.90;;;;;;5087098;28;20426;-71
2023/01/12 13:08:53;;;;;;;1.80;1.20;;;10.80;99.90;;;;;;5081258;28;20477;-71
2023/01/12 13:11:19;;;;;;;3.17;1.80;;;10.80;99.90;;;;;;5078515;28;20020;-71
2023/01/12 13:14:03;;;;;;;3.17;2.10;;;10.90;99.90;;;;;;5084279;28;20476;-71
2023/01/12 13:16:29;;;;;;;2.17;1.42;;;10.50;99.90;;;;;;5103862;28;20024;-71
2023/01/12 13:18:54;;;;;;;2.90;2.17;;;10.70;99.90;;;;;;5087800;28;20108;-71
2023/01/12 13:21:26;;;;;;;3.10;2.45;;;10.80;99.90;;;;;;5075437;28;20055;-71
2023/01/12 13:23:53;;;;;;;3.97;3.10;;;10.60;99.90;;;;;;5075530;28;20020;-71
2023/01/12 13:26:37;;;;;;;3.43;3.13;;;10.80;99.90;;;;;;5084026;28;20025;-71
2023/01/12 13:29:21;;;;;;;4.37;3.20;;;10.90;99.90;;;;;;5084584;28;20069;-71
2023/01/12 13:31:47;;;;;;;;;;;10.80;99.90;;;;;;5076968;28;20485;-71
2023/01/12 13:34:37;;;;;;;3.93;2.87;;;10.70;99.90;;;;;;5075473;28;19922;-71
2023/01/12 13:37:08;;;;;;;4.07;2.87;;;10.80;99.90;;;;;;5085094;28;20050;-71
2023/01/12 13:39:36;;;;;;;4.33;2.50;;;10.30;99.90;;;;;;5078613;28;20035;-71
2023/01/12 13:44:50;;;;;;;2.23;1.80;;;10.60;99.90;;;;;;5077874;28;20081;-71
2023/01/12 13:47:24;;;;;;;1.87;1.77;;;10.60;99.90;;;;;;5072195;28;20025;-72
2023/01/12 13:49:51;;;;;;;;;;;10.70;99.90;;;;;;5080152;28;20020;-71
2023/01/12 13:52:30;;;;;;;2.83;1.80;;;10.70;99.90;;;;;;5074760;28;20246;-71
2023/01/12 13:54:57;;;;;;;2.20;1.27;;;10.50;99.90;;;;;;5075308;28;20028;-72
2023/01/12 13:57:25;;;;;;;1.80;1.50;;;10.50;99.90;;;;;;5075350;28;20021;-72
2023/01/12 14:00:07;;;;;;;1.50;1.40;;;10.70;99.90;;;;;;5079572;28;20020;-72
2023/01/12 14:02:35;;;;;;;1.53;1.30;;;10.50;99.90;;;;;;5078542;28;20020;-72
2023/01/12 14:05:30;;;;;;;2.60;1.30;;;10.50;99.90;;;;;;5079816;28;20519;-72
2023/01/12 14:08:49;;;;;;;2.17;1.20;;;10.60;99.90;;;;;;5074950;28;20439;-72
2023/01/12 14:11:36;;;;;;;1.40;1.23;;;10.60;99.90;;;;;;4992849;28;20031;-71